North Smithfield, Rhode Island
Current Conditions -  °F | °C
As of 10:55 AM on Thursday 23 Oct 2014 (Local Time) from KSFZ Reporting Station
Overcast Overcast  
Wind Chill: 52°   Ceiling: 1000
Heat Index: 52°   Visibility: 10mi
Dew Point: 43°   Wind: 20mph
Humidity: 71%   Direction: 10°N
Pressure: 29.62"   Gusts: 29mph
Location:  41.96°N, 71.55°W
Report Text: KSFZ 231455Z 01017G25KT 10SM OVC010 11/06 A2962 RMK AO1 60001 52010
Loading
Personal Weather Stations






























Interactive Weather Map
Tropical Storm Tracking
New forecast layout! Learn more

10-Day Weather Forecast

Advertisements
Track Severe Weather on mobile